Terminal Aerodrome Forecast
Issued by NWS Cleveland, OH

Home | Current Version | Previous Version | Graphics & Text | Print | Product List | Glossary Off
Versions: 1 2 3 4 5 6 7 8 9 10 11 12 13 14 15 16 17 18 19 20 21 22 23 24 25 26

474
FTUS41 KCLE 241123
TAFCLE
TAF
KCLE 241123Z 2412/2518 VRB03KT P6SM SCT250
     FM241700 03006KT P6SM SCT250
     FM250200 VRB03KT P6SM SCT250
     FM251500 22006KT P6SM SCT080 BKN250=

USA.gov is the U.S. government's official web portal to all federal, state and local government web resources and services.